Time;durP1;ratioP1;P1;durP2;ratioP2;P2;SDS_P1;SDS_P2;PMS_P1;PMS_P2;Temp;Humidity;BMP_temperature;BMP_pressure;BME280_temperature;BME280_humidity;BME280_pressure;Samples;Min_cycle;Max_cycle;Signal;HPM_P1;HPM_P2
2022/09/04 00:01:04;;;;;;;17.50;15.80;;;;;;;;;;4405673;32;20368;-68
2022/09/04 00:03:34;;;;;;;18.10;16.30;;;;;;;;;;4406489;32;20057;-69
2022/09/04 00:06:04;;;;;;;19.17;16.83;;;;;;;;;;4405826;32;20046;-68
2022/09/04 00:08:38;;;;;;;22.55;17.15;;;;;;;;;;4411285;32;20140;-69
2022/09/04 00:11:19;;;;;;;20.20;17.55;;;;;;;;;;4420503;32;20030;-69
2022/09/04 00:14:19;;;;;;;20.15;17.02;;;;;;;;;;4420080;32;20021;-69
2022/09/04 00:16:45;;;;;;;20.85;16.45;;;;;;;;;;4345562;33;20153;-69
2022/09/04 00:19:19;;;;;;;21.17;18.20;;;;;;;;;;4407186;32;20056;-69
2022/09/04 00:22:01;;;;;;;20.33;17.80;;;;;;;;;;4420292;32;20031;-69
2022/09/04 00:24:49;;;;;;;20.25;18.00;;;;;;;;;;4420058;32;20063;-68
2022/09/04 00:27:25;;;;;;;19.25;17.25;;;;;;;;;;4421038;32;20371;-68
2022/09/04 00:29:57;;;;;;;23.30;18.87;;;;;;;;;;4419098;32;20045;-68
2022/09/04 00:32:33;;;;;;;21.33;19.10;;;;;;;;;;4420635;32;20069;-69
2022/09/04 00:34:58;;;;;;;;;;;;;;;;;;4419597;32;20027;-69
2022/09/04 00:37:28;;;;;;;24.57;19.30;;;;;;;;;;4420772;32;19975;-67
2022/09/04 00:40:16;;;;;;;21.35;18.80;;;;;;;;;;4420233;32;20046;-69
2022/09/04 00:43:05;;;;;;;22.27;19.95;;;;;;;;;;4411351;32;20424;-69
2022/09/04 00:45:40;;;;;;;23.12;20.92;;;;;;;;;;4384460;32;20021;-68
2022/09/04 00:48:18;;;;;;;25.17;22.00;;;;;;;;;;4420918;32;20029;-69
2022/09/04 00:51:01;;;;;;;24.25;21.85;;;;;;;;;;4421264;32;20030;-69
2022/09/04 00:53:27;;;;;;;24.30;21.70;;;;;;;;;;4420271;32;20091;-68
2022/09/04 00:55:55;;;;;;;24.30;21.83;;;;;;;;;;4421028;32;20457;-69
2022/09/04 00:58:26;;;;;;;24.27;22.08;;;;;;;;;;4420448;32;20025;-69
2022/09/04 01:00:55;;;;;;;23.17;20.75;;;;;;;;;;4420686;32;20042;-69
2022/09/04 01:03:33;;;;;;;27.67;24.67;;;;;;;;;;4420543;32;20057;-69
2022/09/04 01:06:17;;;;;;;26.30;23.60;;;;;;;;;;4420076;32;20074;-68
2022/09/04 01:08:45;;;;;;;25.67;23.17;;;;;;;;;;4421141;32;20022;-68
2022/09/04 01:11:30;;;;;;;26.92;23.77;;;;;;;;;;4420796;32;20049;-68
2022/09/04 01:14:22;;;;;;;26.35;23.80;;;;;;;;;;4420036;32;20026;-69
2022/09/04 01:16:47;;;;;;;26.35;23.62;;;;;;;;;;4417203;32;20048;-69
2022/09/04 01:19:32;;;;;;;24.65;22.13;;;;;;;;;;4418903;32;20026;-69
2022/09/04 01:22:18;;;;;;;24.98;22.52;;;;;;;;;;4420611;32;20103;-68
2022/09/04 01:24:59;;;;;;;31.52;23.92;;;;;;;;;;4420526;32;20400;-68
2022/09/04 01:27:31;;;;;;;25.12;22.40;;;;;;;;;;4423585;32;20021;-68
2022/09/04 01:33:28;;;;;;;25.23;22.87;;;;;;;;;;4424553;32;20066;-69
2022/09/04 01:36:03;;;;;;;24.83;22.42;;;;;;;;;;4423386;32;20021;-69
2022/09/04 01:38:32;;;;;;;22.83;20.62;;;;;;;;;;4422847;32;20034;-68
2022/09/04 01:43:57;;;;;;;23.90;21.42;;;;;;;;;;4389943;32;20038;-68
2022/09/04 01:46:30;;;;;;;24.15;21.50;;;;;;;;;;4406146;32;20053;-68
2022/09/04 01:49:03;;;;;;;23.35;20.83;;;;;;;;;;4408118;32;20151;-69
2022/09/04 01:51:34;;;;;;;21.80;19.45;;;;;;;;;;4417465;32;20359;-69
2022/09/04 01:54:11;;;;;;;23.20;20.80;;;;;;;;;;4422810;32;20053;-69
2022/09/04 01:56:41;;;;;;;22.80;20.50;;;;;;;;;;4423778;32;20057;-68
2022/09/04 01:59:10;;;;;;;23.12;20.48;;;;;;;;;;4422314;32;20033;-69
2022/09/04 02:01:44;;;;;;;22.67;20.52;;;;;;;;;;4422391;32;20057;-68
2022/09/04 02:04:17;;;;;;;23.42;21.08;;;;;;;;;;4422772;32;20088;-68
2022/09/04 02:06:54;;;;;;;22.65;20.40;;;;;;;;;;4423159;32;20025;-68
2022/09/04 02:09:26;;;;;;;24.00;21.58;;;;;;;;;;4423657;32;20065;-69
2022/09/04 02:11:58;;;;;;;23.70;21.33;;;;;;;;;;4422665;32;20018;-69
2022/09/04 02:14:33;;;;;;;22.13;19.92;;;;;;;;;;4423320;32;20048;-68
2022/09/04 02:17:07;;;;;;;24.52;20.37;;;;;;;;;;4422499;32;20038;-69
2022/09/04 02:19:51;;;;;;;24.73;22.42;;;;;;;;;;4422658;32;20052;-69
2022/09/04 02:22:25;;;;;;;24.77;21.87;;;;;;;;;;4422632;32;20076;-68
2022/09/04 02:25:01;;;;;;;25.35;22.00;;;;;;;;;;4422105;32;20026;-68
2022/09/04 02:27:49;;;;;;;24.30;21.85;;;;;;;;;;4422285;32;20049;-68
2022/09/04 02:30:16;;;;;;;25.08;22.33;;;;;;;;;;4422650;32;20018;-69
2022/09/04 02:32:47;;;;;;;24.73;22.17;;;;;;;;;;4421826;32;20034;-68
2022/09/04 02:35:21;;;;;;;24.50;21.98;;;;;;;;;;4422753;32;20049;-69
2022/09/04 02:41:05;;;;;;;26.60;23.98;;;;;;;;;;4413697;32;20096;-69
2022/09/04 02:46:59;;;;;;;25.92;23.33;;;;;;;;;;4359806;32;20123;-69
2022/09/04 02:49:47;;;;;;;27.42;24.70;;;;;;;;;;4380912;32;20087;-69
2022/09/04 02:52:25;;;;;;;26.10;23.40;;;;;;;;;;4422587;32;20408;-69
2022/09/04 02:55:09;;;;;;;27.85;25.02;;;;;;;;;;4422947;32;20022;-68
2022/09/04 02:57:49;;;;;;;25.12;22.77;;;;;;;;;;4421863;32;20022;-68
2022/09/04 03:00:18;;;;;;;26.50;23.92;;;;;;;;;;4406285;32;20018;-69
2022/09/04 03:03:02;;;;;;;27.92;24.60;;;;;;;;;;4406709;32;20026;-69
2022/09/04 03:05:30;;;;;;;28.35;24.80;;;;;;;;;;4406213;32;20026;-68
2022/09/04 03:08:01;;;;;;;29.27;25.35;;;;;;;;;;4406637;32;20332;-68
2022/09/04 03:10:30;;;;;;;30.35;26.58;;;;;;;;;;4407292;32;20476;-68
2022/09/04 03:13:00;;;;;;;29.45;25.50;;;;;;;;;;4407464;32;20368;-68
2022/09/04 03:15:28;;;;;;;29.15;26.15;;;;;;;;;;4406820;32;20045;-68
2022/09/04 03:18:00;;;;;;;28.80;25.75;;;;;;;;;;4407940;32;20419;-68
2022/09/04 03:20:27;;;;;;;30.23;27.15;;;;;;;;;;4421336;32;20068;-69
2022/09/04 03:23:00;;;;;;;30.05;26.85;;;;;;;;;;4422562;32;20034;-68
2022/09/04 03:25:34;;;;;;;30.90;27.90;;;;;;;;;;4421758;32;20060;-68
2022/09/04 03:28:00;;;;;;;29.95;26.85;;;;;;;;;;4421177;32;20078;-68
2022/09/04 03:30:26;;;;;;;35.00;27.95;;;;;;;;;;4421064;32;20396;-68
2022/09/04 03:33:20;;;;;;;32.50;28.20;;;;;;;;;;4422156;32;20027;-68
2022/09/04 03:35:49;;;;;;;32.28;29.02;;;;;;;;;;4420291;32;20079;-68
2022/09/04 03:38:15;;;;;;;32.65;29.33;;;;;;;;;;4421360;32;20470;-68
2022/09/04 03:40:41;;;;;;;32.22;27.52;;;;;;;;;;4421757;32;20088;-68
2022/09/04 03:43:20;;;;;;;33.65;30.33;;;;;;;;;;4421482;32;20052;-69
2022/09/04 03:46:11;;;;;;;33.75;30.48;;;;;;;;;;4422475;32;20356;-68
2022/09/04 03:48:55;;;;;;;33.22;29.95;;;;;;;;;;4404131;32;20460;-69
2022/09/04 03:54:45;;;;;;;33.65;30.05;;;;;;;;;;4403554;32;20061;-68
2022/09/04 03:57:30;;;;;;;34.10;30.10;;;;;;;;;;4422189;32;20053;-68
2022/09/04 04:00:11;;;;;;;33.08;29.87;;;;;;;;;;4420015;32;20030;-68
2022/09/04 04:02:49;;;;;;;34.10;29.98;;;;;;;;;;4405707;32;20023;-68
2022/09/04 04:05:35;;;;;;;36.08;32.47;;;;;;;;;;4407115;32;20049;-69
2022/09/04 04:08:26;;;;;;;35.22;31.77;;;;;;;;;;4406195;32;20018;-69
2022/09/04 04:10:51;;;;;;;36.08;32.38;;;;;;;;;;4408184;32;20048;-69
2022/09/04 04:13:46;;;;;;;36.17;32.58;;;;;;;;;;4420756;32;20038;-68
2022/09/04 04:16:19;;;;;;;34.10;30.83;;;;;;;;;;4421862;32;20022;-68
2022/09/04 04:18:56;;;;;;;35.05;31.55;;;;;;;;;;4420358;32;20060;-68
2022/09/04 04:21:54;;;;;;;36.45;32.72;;;;;;;;;;4420595;32;20036;-69
2022/09/04 04:24:30;;;;;;;34.80;31.37;;;;;;;;;;4420855;32;20085;-69
2022/09/04 04:27:08;;;;;;;36.15;32.70;;;;;;;;;;4422328;32;20087;-68
2022/09/04 04:29:42;;;;;;;36.70;32.83;;;;;;;;;;4420557;32;20034;-68
2022/09/04 04:32:24;;;;;;;37.65;33.80;;;;;;;;;;4420981;32;20060;-68
2022/09/04 04:47:39;;;;;;;40.12;36.00;;;;;;;;;;4419039;32;20367;-70
2022/09/04 04:50:10;;;;;;;37.65;33.72;;;;;;;;;;4421129;32;20021;-69
2022/09/04 04:52:57;;;;;;;36.28;32.55;;;;;;;;;;4420288;32;20030;-68
2022/09/04 04:55:32;;;;;;;;;;;;;;;;;;;;;
2022/09/04 04:58:04;;;;;;;38.13;34.20;;;;;;;;;;4391350;32;20340;-69
2022/09/04 05:00:42;;;;;;;36.90;32.88;;;;;;;;;;4421586;32;20080;-68
2022/09/04 05:03:15;;;;;;;38.70;33.65;;;;;;;;;;4423440;32;20029;-68
2022/09/04 05:05:45;;;;;;;36.17;32.60;;;;;;;;;;4423867;32;20065;-68
2022/09/04 05:08:22;;;;;;;34.90;31.55;;;;;;;;;;4423404;32;20102;-70
2022/09/04 05:11:09;;;;;;;35.83;32.33;;;;;;;;;;4422762;32;20052;-68
2022/09/04 05:13:49;;;;;;;35.88;32.10;;;;;;;;;;4423334;32;20056;-69
2022/09/04 05:16:33;;;;;;;37.72;33.67;;;;;;;;;;4423457;32;20325;-68
2022/09/04 05:19:00;;;;;;;37.28;33.25;;;;;;;;;;4422831;32;20068;-69
2022/09/04 05:21:46;;;;;;;39.20;35.10;;;;;;;;;;4423003;32;20023;-68
2022/09/04 05:24:30;;;;;;;39.38;35.47;;;;;;;;;;4423087;32;20026;-68
2022/09/04 05:26:59;;;;;;;39.58;35.42;;;;;;;;;;4422728;32;20088;-69
2022/09/04 05:32:57;;;;;;;36.65;32.90;;;;;;;;;;4360693;32;20070;-68
2022/09/04 05:36:02;;;;;;;40.95;36.75;;;;;;;;;;4360315;33;20128;-68
2022/09/04 05:38:33;;;;;;;42.35;37.78;;;;;;;;;;4422483;32;20132;-68
2022/09/04 05:41:06;;;;;;;40.38;35.80;;;;;;;;;;4407646;32;20031;-68
2022/09/04 05:43:50;;;;;;;41.25;36.90;;;;;;;;;;4409734;32;20541;-68
2022/09/04 05:46:29;;;;;;;41.60;36.90;;;;;;;;;;4414309;32;20022;-69
2022/09/04 05:49:20;;;;;;;43.67;39.20;;;;;;;;;;4416115;32;20026;-68
2022/09/04 05:51:48;;;;;;;43.80;37.88;;;;;;;;;;4410488;32;20049;-68
2022/09/04 05:54:19;;;;;;;41.67;37.33;;;;;;;;;;4407693;32;20042;-68
2022/09/04 06:00:03;;;;;;;39.13;35.08;;;;;;;;;;4437751;32;20130;-68
2022/09/04 06:02:52;;;;;;;40.20;36.35;;;;;;;;;;4437948;32;20026;-68
2022/09/04 06:05:22;;;;;;;39.63;35.75;;;;;;;;;;4407595;32;20027;-68
2022/09/04 06:07:54;;;;;;;39.03;34.85;;;;;;;;;;4418740;32;20048;-69
2022/09/04 06:10:26;;;;;;;41.05;36.60;;;;;;;;;;4420911;32;20333;-68
2022/09/04 06:13:04;;;;;;;40.80;36.40;;;;;;;;;;4423689;32;20030;-68
2022/09/04 06:15:39;;;;;;;39.80;35.17;;;;;;;;;;4420595;32;20506;-69
2022/09/04 06:18:14;;;;;;;39.55;35.63;;;;;;;;;;4422232;32;20118;-68
2022/09/04 06:21:05;;;;;;;45.88;36.85;;;;;;;;;;4422654;32;20051;-68
2022/09/04 06:23:38;;;;;;;37.03;32.38;;;;;;;;;;4419677;32;20062;-68
2022/09/04 06:26:27;;;;;;;38.42;34.08;;;;;;;;;;4423614;32;20067;-68
2022/09/04 06:29:35;;;;;;;39.38;31.95;;;;;;;;;;4360077;32;20031;-68
2022/09/04 06:32:21;;;;;;;35.20;30.50;;;;;;;;;;4359571;32;20050;-68
2022/09/04 06:35:08;;;;;;;30.37;27.37;;;;;;;;;;4420094;32;20057;-69
2022/09/04 06:37:55;;;;;;;37.35;33.55;;;;;;;;;;4421412;32;20038;-69
2022/09/04 06:40:27;;;;;;;37.60;33.70;;;;;;;;;;4421420;32;20115;-69
2022/09/04 06:42:52;;;;;;;37.97;34.10;;;;;;;;;;4422311;32;20030;-68
2022/09/04 06:45:36;;;;;;;39.47;35.20;;;;;;;;;;4422099;32;20050;-68
2022/09/04 06:48:14;;;;;;;38.88;34.88;;;;;;;;;;4420266;32;20052;-68
2022/09/04 06:50:52;;;;;;;40.90;36.83;;;;;;;;;;4420534;32;20062;-69
2022/09/04 06:53:36;;;;;;;37.70;33.78;;;;;;;;;;4422426;32;20057;-69
2022/09/04 06:56:23;;;;;;;36.72;33.22;;;;;;;;;;4420219;32;20048;-69
2022/09/04 06:58:51;;;;;;;38.00;34.10;;;;;;;;;;4422512;32;20049;-69
2022/09/04 07:01:39;;;;;;;35.15;31.73;;;;;;;;;;4422624;32;20026;-69
2022/09/04 07:04:23;;;;;;;34.05;30.52;;;;;;;;;;4420184;32;20056;-68
2022/09/04 07:06:57;;;;;;;37.25;33.28;;;;;;;;;;4421902;32;20066;-70
2022/09/04 07:09:31;;;;;;;34.75;31.40;;;;;;;;;;4420811;32;20079;-71
2022/09/04 07:12:06;;;;;;;34.97;31.35;;;;;;;;;;4421746;32;20053;-70
2022/09/04 07:14:35;;;;;;;35.60;31.92;;;;;;;;;;4421970;32;20092;-70
2022/09/04 07:17:05;;;;;;;35.22;31.62;;;;;;;;;;4420416;32;20076;-69
2022/09/04 07:19:41;;;;;;;35.65;32.08;;;;;;;;;;4421329;32;20091;-69
2022/09/04 07:22:16;;;;;;;35.15;31.55;;;;;;;;;;4428707;32;20037;-70
2022/09/04 07:24:54;;;;;;;33.17;29.73;;;;;;;;;;4421602;32;20037;-69
2022/09/04 07:27:26;;;;;;;34.42;31.12;;;;;;;;;;4422433;32;20420;-69
2022/09/04 07:29:57;;;;;;;32.67;29.45;;;;;;;;;;4420686;32;20025;-69
2022/09/04 07:32:35;;;;;;;33.55;29.98;;;;;;;;;;4420708;32;20485;-69
2022/09/04 07:35:00;;;;;;;34.35;30.92;;;;;;;;;;4421267;32;20497;-70
2022/09/04 07:37:32;;;;;;;34.78;31.00;;;;;;;;;;4420729;32;20030;-70
2022/09/04 07:40:10;;;;;;;35.47;31.87;;;;;;;;;;4420727;32;20484;-70
2022/09/04 07:42:56;;;;;;;35.47;31.87;;;;;;;;;;4421801;32;20030;-70
2022/09/04 07:45:33;;;;;;;36.42;32.70;;;;;;;;;;4421449;32;20427;-70
2022/09/04 07:48:02;;;;;;;35.78;32.28;;;;;;;;;;4421046;32;20100;-70
2022/09/04 07:50:34;;;;;;;39.53;35.40;;;;;;;;;;4419356;32;20395;-70
2022/09/04 07:52:59;;;;;;;35.00;31.30;;;;;;;;;;4420578;32;20068;-69
2022/09/04 07:55:39;;;;;;;35.65;31.83;;;;;;;;;;4420949;32;20480;-70
2022/09/04 07:58:23;;;;;;;38.08;33.83;;;;;;;;;;4418938;32;20056;-69
2022/09/04 08:00:54;;;;;;;38.28;34.25;;;;;;;;;;4419806;32;20034;-70
2022/09/04 08:03:55;;;;;;;37.78;33.70;;;;;;;;;;4418801;32;20073;-69
2022/09/04 08:06:21;;;;;;;38.30;34.25;;;;;;;;;;4356343;32;20078;-69
2022/09/04 08:08:49;;;;;;;36.28;32.50;;;;;;;;;;4406878;32;20110;-69
2022/09/04 08:11:28;;;;;;;35.38;31.15;;;;;;;;;;4419506;32;20034;-69
2022/09/04 08:14:11;;;;;;;36.70;32.92;;;;;;;;;;4420726;32;20366;-69
2022/09/04 08:16:36;;;;;;;42.50;36.35;;;;;;;;;;4420661;32;20048;-69
2022/09/04 08:19:08;;;;;;;41.90;37.58;;;;;;;;;;4419973;32;20428;-68
2022/09/04 08:21:36;;;;;;;41.63;37.05;;;;;;;;;;4420750;32;20072;-69
2022/09/04 08:24:02;;;;;;;41.22;36.80;;;;;;;;;;4420287;32;20030;-69
2022/09/04 08:26:33;;;;;;;43.85;39.17;;;;;;;;;;4421190;32;20384;-68
2022/09/04 08:29:17;;;;;;;34.58;31.08;;;;;;;;;;4420975;32;20060;-69
2022/09/04 08:31:45;;;;;;;46.78;37.85;;;;;;;;;;4420253;32;20045;-69
2022/09/04 08:34:14;;;;;;;42.88;38.20;;;;;;;;;;4421498;32;20458;-70
2022/09/04 08:36:39;;;;;;;50.55;40.58;;;;;;;;;;4424341;32;20030;-70
2022/09/04 08:39:21;;;;;;;45.10;38.53;;;;;;;;;;4424737;32;20060;-70
2022/09/04 08:42:06;;;;;;;46.40;38.80;;;;;;;;;;4424244;32;20022;-69
2022/09/04 08:44:35;;;;;;;40.05;35.50;;;;;;;;;;4424691;32;20031;-69
2022/09/04 08:47:19;;;;;;;44.97;40.08;;;;;;;;;;4422133;32;20050;-69
2022/09/04 08:50:03;;;;;;;44.50;39.80;;;;;;;;;;4423276;32;20030;-69
2022/09/04 08:52:40;;;;;;;45.10;39.95;;;;;;;;;;4422780;32;20022;-69
2022/09/04 08:55:14;;;;;;;42.22;37.95;;;;;;;;;;4423964;32;20026;-69
2022/09/04 08:58:00;;;;;;;46.28;41.35;;;;;;;;;;4422974;32;20339;-69
2022/09/04 09:00:33;;;;;;;46.97;40.47;;;;;;;;;;4424196;32;20064;-70
2022/09/04 09:03:10;;;;;;;45.90;41.00;;;;;;;;;;4422939;32;20049;-70
2022/09/04 09:05:52;;;;;;;44.95;40.12;;;;;;;;;;4424245;32;20053;-70
2022/09/04 09:08:17;;;;;;;45.90;40.90;;;;;;;;;;4424086;32;20034;-70
2022/09/04 09:11:02;;;;;;;46.28;40.60;;;;;;;;;;4422823;32;20408;-69
2022/09/04 09:13:46;;;;;;;44.85;40.08;;;;;;;;;;4423171;32;20412;-70
2022/09/04 09:16:18;;;;;;;45.33;39.38;;;;;;;;;;4423506;32;20025;-69
2022/09/04 09:19:15;;;;;;;45.63;40.60;;;;;;;;;;4422367;32;20076;-70
2022/09/04 09:21:43;;;;;;;45.22;40.38;;;;;;;;;;4389182;32;20106;-69
2022/09/04 09:24:20;;;;;;;50.53;43.33;;;;;;;;;;4423111;32;20026;-69
2022/09/04 09:27:12;;;;;;;46.83;41.72;;;;;;;;;;4423265;32;20053;-69
2022/09/04 09:29:47;;;;;;;46.33;40.17;;;;;;;;;;4423280;32;20035;-69
2022/09/04 09:32:40;;;;;;;47.00;40.12;;;;;;;;;;4423302;32;20049;-69
2022/09/04 09:35:07;;;;;;;45.03;39.90;;;;;;;;;;4424348;32;20052;-70
2022/09/04 09:37:58;;;;;;;40.35;35.97;;;;;;;;;;4422564;32;20171;-69
2022/09/04 09:40:23;;;;;;;50.08;41.05;;;;;;;;;;4423164;32;20090;-70
2022/09/04 09:42:53;;;;;;;45.15;39.08;;;;;;;;;;4423457;32;20025;-69
2022/09/04 09:45:37;;;;;;;47.88;42.83;;;;;;;;;;4422405;32;20022;-69
2022/09/04 09:48:29;;;;;;;48.00;40.40;;;;;;;;;;4423770;32;20068;-70
2022/09/04 09:51:03;;;;;;;37.70;32.80;;;;;;;;;;4423568;32;20106;-69
2022/09/04 09:53:47;;;;;;;42.47;35.83;;;;;;;;;;4422673;32;20029;-69
2022/09/04 09:56:15;;;;;;;41.72;36.95;;;;;;;;;;4423798;32;20094;-69
2022/09/04 09:58:59;;;;;;;37.95;32.08;;;;;;;;;;4423234;32;20451;-69
2022/09/04 10:01:24;;;;;;;40.00;35.63;;;;;;;;;;4422589;32;20025;-69
2022/09/04 10:03:49;;;;;;;41.28;36.75;;;;;;;;;;4422394;32;20096;-69
2022/09/04 10:06:20;;;;;;;41.95;37.53;;;;;;;;;;4422675;32;20049;-70
2022/09/04 10:08:51;;;;;;;41.45;36.88;;;;;;;;;;4421585;32;20026;-70
2022/09/04 10:11:46;;;;;;;41.20;36.88;;;;;;;;;;4422513;32;20078;-71
2022/09/04 10:14:30;;;;;;;40.30;33.55;;;;;;;;;;4422486;32;20038;-70
2022/09/04 10:17:02;;;;;;;39.65;35.03;;;;;;;;;;4420927;32;20097;-69
2022/09/04 10:19:46;;;;;;;38.97;34.30;;;;;;;;;;4422261;32;20018;-70
2022/09/04 10:22:17;;;;;;;39.20;33.42;;;;;;;;;;4423156;32;20048;-70
2022/09/04 10:25:04;;;;;;;36.85;32.05;;;;;;;;;;4422127;32;20034;-70
2022/09/04 10:27:43;;;;;;;27.60;24.75;;;;;;;;;;4423714;32;20026;-70
2022/09/04 10:30:19;;;;;;;28.62;23.80;;;;;;;;;;4422984;32;20034;-70
2022/09/04 10:33:03;;;;;;;26.60;23.80;;;;;;;;;;4421887;32;20048;-69
2022/09/04 10:35:47;;;;;;;20.42;17.40;;;;;;;;;;4421923;32;20071;-69
2022/09/04 10:38:20;;;;;;;26.27;23.48;;;;;;;;;;4421743;32;20034;-69
2022/09/04 10:40:45;;;;;;;23.75;21.35;;;;;;;;;;4421581;32;20049;-69
2022/09/04 10:43:13;;;;;;;28.92;25.80;;;;;;;;;;4423514;32;20098;-71
2022/09/04 10:45:59;;;;;;;34.08;30.48;;;;;;;;;;4421354;32;20400;-70
2022/09/04 10:48:31;;;;;;;37.78;33.10;;;;;;;;;;4409437;32;20079;-70
2022/09/04 10:51:00;;;;;;;27.48;24.52;;;;;;;;;;4407313;32;20438;-71
2022/09/04 10:53:41;;;;;;;29.75;25.67;;;;;;;;;;4421874;32;20030;-70
2022/09/04 10:56:34;;;;;;;29.40;23.83;;;;;;;;;;4422463;32;20022;-71
2022/09/04 10:59:09;;;;;;;25.75;23.05;;;;;;;;;;4418538;32;20030;-71
2022/09/04 11:01:44;;;;;;;30.03;23.40;;;;;;;;;;4421184;32;20100;-72
2022/09/04 11:04:12;;;;;;;28.90;25.27;;;;;;;;;;4422358;32;20038;-72
2022/09/04 11:06:48;;;;;;;26.85;22.90;;;;;;;;;;4417355;32;20030;-72
2022/09/04 11:09:13;;;;;;;20.37;18.20;;;;;;;;;;4420998;32;20029;-72
2022/09/04 11:11:39;;;;;;;21.33;17.37;;;;;;;;;;4415865;32;20025;-73
2022/09/04 11:14:17;;;;;;;28.48;22.80;;;;;;;;;;4412192;32;20022;-73
2022/09/04 11:17:01;;;;;;;28.48;20.77;;;;;;;;;;4410130;32;20159;-73
2022/09/04 11:19:39;;;;;;;27.10;19.73;;;;;;;;;;4413282;32;20420;-73
2022/09/04 11:22:23;;;;;;;22.33;17.90;;;;;;;;;;4421088;32;20400;-72
2022/09/04 11:25:00;;;;;;;22.58;18.62;;;;;;;;;;4421410;32;20026;-72
2022/09/04 11:27:37;;;;;;;22.05;17.98;;;;;;;;;;4420221;32;20038;-72
2022/09/04 11:30:03;;;;;;;18.42;13.75;;;;;;;;;;4420108;32;20030;-72
2022/09/04 11:32:51;;;;;;;24.83;21.67;;;;;;;;;;4421401;32;20056;-72
2022/09/04 11:35:29;;;;;;;20.75;17.20;;;;;;;;;;4421320;32;20112;-73
2022/09/04 11:37:57;;;;;;;20.62;17.30;;;;;;;;;;4421052;32;20395;-72
2022/09/04 11:40:43;;;;;;;16.40;14.32;;;;;;;;;;4419803;32;20018;-72
2022/09/04 11:43:12;;;;;;;18.20;14.00;;;;;;;;;;4410412;32;20366;-72
2022/09/04 11:45:57;;;;;;;15.05;12.00;;;;;;;;;;4413139;32;20030;-72
2022/09/04 11:48:23;;;;;;;18.52;12.32;;;;;;;;;;4413173;32;20042;-72
2022/09/04 11:50:55;;;;;;;21.92;17.15;;;;;;;;;;4412758;32;20026;-72
2022/09/04 11:53:39;;;;;;;22.95;16.30;;;;;;;;;;4411838;32;20096;-71
2022/09/04 11:56:07;;;;;;;22.50;16.58;;;;;;;;;;4412310;32;20029;-72
2022/09/04 11:58:34;;;;;;;21.85;17.25;;;;;;;;;;4411636;32;20091;-72
2022/09/04 12:01:19;;;;;;;21.33;17.75;;;;;;;;;;4413371;32;20026;-72
2022/09/04 12:03:48;;;;;;;24.90;21.08;;;;;;;;;;4412088;32;20049;-72
2022/09/04 12:06:22;;;;;;;21.52;17.17;;;;;;;;;;4419715;32;20374;-73
2022/09/04 12:08:59;;;;;;;20.73;16.12;;;;;;;;;;4420278;32;20021;-72
2022/09/04 12:11:52;;;;;;;20.48;15.52;;;;;;;;;;4419992;32;20151;-73
2022/09/04 12:14:27;;;;;;;20.12;15.15;;;;;;;;;;4420405;32;20018;-72
2022/09/04 12:17:09;;;;;;;19.15;14.87;;;;;;;;;;4420229;32;20083;-72
2022/09/04 12:19:41;;;;;;;17.37;12.48;;;;;;;;;;4419499;32;20441;-72
2022/09/04 12:22:26;;;;;;;16.62;12.70;;;;;;;;;;4420384;32;20030;-72
2022/09/04 12:28:08;;;;;;;14.10;9.48;;;;;;;;;;4420555;32;20456;-71
2022/09/04 12:30:57;;;;;;;13.25;9.48;;;;;;;;;;4419830;32;20041;-72
2022/09/04 12:33:57;;;;;;;13.68;10.38;;;;;;;;;;4420625;32;20025;-71
2022/09/04 12:36:37;;;;;;;15.25;12.13;;;;;;;;;;4420691;32;20026;-72
2022/09/04 12:39:21;;;;;;;13.20;11.63;;;;;;;;;;4420456;32;20034;-73
2022/09/04 12:42:07;;;;;;;16.10;12.82;;;;;;;;;;4419703;32;20021;-71
2022/09/04 12:44:41;;;;;;;16.33;12.70;;;;;;;;;;4420516;32;20018;-72
2022/09/04 12:47:32;;;;;;;16.37;12.55;;;;;;;;;;4420714;32;20021;-72
2022/09/04 12:49:57;;;;;;;15.65;11.52;;;;;;;;;;4419013;32;20416;-73
2022/09/04 12:52:41;;;;;;;14.87;11.30;;;;;;;;;;4420716;32;20022;-72
2022/09/04 12:55:26;;;;;;;14.75;10.55;;;;;;;;;;4420086;32;20052;-73
2022/09/04 12:57:59;;;;;;;12.68;9.93;;;;;;;;;;4419998;32;20060;-72
2022/09/04 13:00:46;;;;;;;12.98;9.90;;;;;;;;;;4420709;32;20060;-72
2022/09/04 13:03:17;;;;;;;13.38;8.52;;;;;;;;;;4419891;32;20101;-72
2022/09/04 13:06:03;;;;;;;12.25;8.50;;;;;;;;;;4420406;32;20017;-71
2022/09/04 13:08:31;;;;;;;12.13;8.40;;;;;;;;;;4420546;32;20018;-72
2022/09/04 13:11:19;;;;;;;14.27;9.55;;;;;;;;;;4420722;32;20033;-72
2022/09/04 13:14:12;;;;;;;17.35;9.43;;;;;;;;;;4412163;32;20022;-72
2022/09/04 13:16:58;;;;;;;11.55;8.52;;;;;;;;;;4420403;32;20026;-72
2022/09/04 13:19:49;;;;;;;13.75;10.43;;;;;;;;;;4420482;32;20026;-72
2022/09/04 13:22:25;;;;;;;10.88;9.50;;;;;;;;;;4420196;32;20085;-72
2022/09/04 13:25:04;;;;;;;14.02;9.82;;;;;;;;;;4421555;32;20033;-72
2022/09/04 13:27:38;;;;;;;13.38;10.35;;;;;;;;;;4423711;32;20022;-72
2022/09/04 13:30:05;;;;;;;14.48;11.50;;;;;;;;;;4423957;32;20034;-72
2022/09/04 13:35:58;;;;;;;17.42;11.65;;;;;;;;;;4423542;32;20037;-72
2022/09/04 13:38:24;;;;;;;13.68;11.80;;;;;;;;;;4422714;32;20090;-72
2022/09/04 13:40:53;;;;;;;15.75;10.35;;;;;;;;;;4423382;32;20026;-72
2022/09/04 13:43:45;;;;;;;13.45;9.95;;;;;;;;;;4422140;32;20025;-72
2022/09/04 13:46:15;;;;;;;13.88;11.15;;;;;;;;;;4423598;32;20058;-72
2022/09/04 13:49:04;;;;;;;14.30;9.23;;;;;;;;;;4415694;32;20069;-72
2022/09/04 13:52:06;;;;;;;18.40;9.82;;;;;;;;;;4414234;32;20022;-72
2022/09/04 13:54:33;;;;;;;13.95;10.45;;;;;;;;;;4412573;32;20088;-73
2022/09/04 13:58:06;;;;;;;16.25;10.93;;;;;;;;;;4414097;32;20026;-72
2022/09/04 14:00:06;;;;;;;14.10;10.40;;;;;;;;;;4407072;32;20044;-72
2022/09/04 14:02:35;;;;;;;12.75;8.68;;;;;;;;;;4414012;32;20454;-72
2022/09/04 14:05:04;;;;;;;12.37;8.85;;;;;;;;;;4411276;32;20034;-72
2022/09/04 14:07:34;;;;;;;12.73;8.82;;;;;;;;;;4415402;32;20026;-72
2022/09/04 14:13:17;;;;;;;10.02;7.75;;;;;;;;;;4421365;32;20100;-72
2022/09/04 14:16:22;;;;;;;9.32;7.32;;;;;;;;;;4422492;32;20019;-72
2022/09/04 14:19:10;;;;;;;11.25;6.62;;;;;;;;;;4417055;32;20420;-72
2022/09/04 14:21:42;;;;;;;9.80;7.37;;;;;;;;;;4388834;32;20391;-71
2022/09/04 14:24:31;;;;;;;8.60;5.97;;;;;;;;;;4406765;32;20027;-71
2022/09/04 14:27:09;;;;;;;10.55;6.80;;;;;;;;;;4407048;32;20049;-71
2022/09/04 14:30:08;;;;;;;9.52;5.50;;;;;;;;;;4407328;32;20053;-71
2022/09/04 14:32:56;;;;;;;7.15;4.50;;;;;;;;;;4409420;32;20465;-72
2022/09/04 14:35:55;;;;;;;;;;;;;;;;;;;;;
2022/09/04 14:38:29;;;;;;;5.78;4.20;;;;;;;;;;4416024;32;20077;-72
2022/09/04 14:41:01;;;;;;;7.05;4.82;;;;;;;;;;4421987;32;20052;-72
2022/09/04 14:43:35;;;;;;;9.52;4.22;;;;;;;;;;4423029;32;20063;-73
2022/09/04 14:46:11;;;;;;;5.22;3.83;;;;;;;;;;4421827;32;20113;-74
2022/09/04 14:48:43;;;;;;;5.47;3.28;;;;;;;;;;4422348;32;20022;-73
2022/09/04 14:51:12;;;;;;;4.80;3.17;;;;;;;;;;4422055;32;20063;-73
2022/09/04 14:56:48;;;;;;;6.05;3.33;;;;;;;;;;4418603;32;20154;-73
2022/09/04 14:59:40;;;;;;;5.30;3.17;;;;;;;;;;4420172;32;20038;-73
2022/09/04 15:02:42;;;;;;;;;;;;;;;;;;;;;
2022/09/04 15:05:26;;;;;;;3.72;3.30;;;;;;;;;;4412792;32;20063;-72
2022/09/04 15:07:53;;;;;;;7.35;3.30;;;;;;;;;;4413883;32;20079;-71
2022/09/04 15:10:38;;;;;;;6.05;2.95;;;;;;;;;;4414198;32;20086;-72
2022/09/04 15:25:55;;;;;;;5.22;3.35;;;;;;;;;;4393370;32;20038;-72
2022/09/04 15:28:26;;;;;;;4.32;3.08;;;;;;;;;;4421182;32;20022;-74
2022/09/04 15:31:01;;;;;;;7.85;4.00;;;;;;;;;;4422078;32;20042;-74
2022/09/04 15:33:26;;;;;;;7.05;3.45;;;;;;;;;;4420974;32;20022;-73
2022/09/04 15:36:03;;;;;;;6.72;3.58;;;;;;;;;;4421182;32;20472;-73
2022/09/04 15:38:29;;;;;;;4.60;3.80;;;;;;;;;;4421648;32;20057;-72
2022/09/04 15:40:54;;;;;;;6.68;3.87;;;;;;;;;;4420546;32;20039;-72
2022/09/04 15:43:26;;;;;;;3.80;3.15;;;;;;;;;;4420575;32;20650;-73
2022/09/04 15:45:52;;;;;;;4.87;3.10;;;;;;;;;;4420794;32;20087;-73
2022/09/04 15:48:37;;;;;;;3.95;2.67;;;;;;;;;;4421375;32;20356;-73
2022/09/04 15:51:17;;;;;;;14.57;4.22;;;;;;;;;;4357644;32;20489;-72
2022/09/04 15:54:02;;;;;;;11.25;3.60;;;;;;;;;;4423767;32;20022;-72
2022/09/04 15:59:47;;;;;;;8.73;2.78;;;;;;;;;;4358725;32;20085;-72
2022/09/04 16:02:16;;;;;;;4.40;2.78;;;;;;;;;;4358330;32;20087;-73
2022/09/04 16:05:04;;;;;;;5.05;2.80;;;;;;;;;;4390530;32;20099;-72
2022/09/04 16:07:40;;;;;;;8.25;3.10;;;;;;;;;;4405269;32;20076;-72
2022/09/04 16:10:29;;;;;;;6.35;2.90;;;;;;;;;;4404348;32;20022;-72
2022/09/04 16:13:07;;;;;;;7.50;2.58;;;;;;;;;;4405842;32;20018;-71
2022/09/04 16:15:37;;;;;;;5.10;2.30;;;;;;;;;;4405566;32;20104;-71
2022/09/04 16:18:37;;;;;;;4.93;2.42;;;;;;;;;;4410447;32;20433;-71
2022/09/04 16:21:31;;;;;;;4.25;1.90;;;;;;;;;;4420913;32;20076;-71
2022/09/04 16:24:23;;;;;;;6.93;2.10;;;;;;;;;;4343167;33;20548;-71
2022/09/04 16:26:52;;;;;;;4.22;1.75;;;;;;;;;;4358259;32;20024;-72